Arlington, Maryland
Current Conditions -  °F | °C
As of 9:54 PM on Wednesday 22 Oct 2014 (Local Time) from KBWI Reporting Station
Broken Clouds Broken Clouds  
Wind Chill: 54°   Ceiling: 3700
Heat Index: 54°   Visibility: 10mi
Dew Point: 44°   Wind: 13mph
Humidity: 69%   Direction: 330°NNW
Pressure: 29.92"   Gusts: 25mph
Location:  39.3453°N, 76.6832°W
Report Text: KBWI 230154Z 33011G22KT 10SM FEW030 BKN037 BKN060 12/07 A2992 RMK AO2 SLP130 T01220067
Loading
Personal Weather Stations






























Interactive Weather Map
Tropical Storm Tracking
New forecast layout! Learn more

10-Day Weather Forecast

Advertisements
Track Severe Weather on mobile